createdAt,value
2019-04-04T00:00:27.174Z,95078.24
2019-04-04T00:02:53.031Z,95073.75
2019-04-04T00:05:18.867Z,95070.92
2019-04-04T00:07:44.740Z,95070.88
2019-04-04T00:10:10.807Z,95066.98
2019-04-04T00:12:36.976Z,95081.75
2019-04-04T00:15:04.937Z,95080.00
2019-04-04T00:17:30.797Z,95072.39
2019-04-04T00:19:56.660Z,95072.39
2019-04-04T00:22:22.498Z,95065.27
2019-04-04T00:24:48.360Z,95067.63
2019-04-04T00:27:14.191Z,95067.13
2019-04-04T00:29:40.047Z,95061.82
2019-04-04T00:32:05.989Z,95064.11
2019-04-04T00:34:31.844Z,95069.64
2019-04-04T00:36:57.697Z,95058.07
2019-04-04T00:39:23.595Z,95062.80
2019-04-04T00:41:49.534Z,95066.25
2019-04-04T00:44:15.372Z,95063.12
2019-04-04T00:46:41.245Z,95056.66
2019-04-04T00:49:07.087Z,95059.19
2019-04-04T00:51:33.054Z,95057.47
2019-04-04T00:53:58.891Z,95053.84
2019-04-04T00:56:24.733Z,95048.25
2019-04-04T00:58:52.068Z,95052.75
2019-04-04T01:01:18.347Z,95050.45
2019-04-04T01:03:44.223Z,95044.14
2019-04-04T01:06:10.076Z,95036.61
2019-04-04T01:08:38.014Z,95047.78
2019-04-04T01:11:03.687Z,95048.92
2019-04-04T01:13:29.544Z,95048.92
2019-04-04T01:15:55.378Z,95045.91
2019-04-04T01:18:21.237Z,95056.09
2019-04-04T01:20:47.109Z,95049.14
2019-04-04T01:23:12.976Z,95047.98
2019-04-04T01:25:38.937Z,95054.98
2019-04-04T01:28:07.797Z,95048.38
2019-04-04T01:30:32.544Z,95039.72
2019-04-04T01:32:58.409Z,95033.98
2019-04-04T01:35:24.265Z,95038.19
2019-04-04T01:37:50.130Z,95041.07
2019-04-04T01:40:15.978Z,95033.23
2019-04-04T01:42:41.821Z,95040.05
2019-04-04T01:45:07.863Z,95043.57
2019-04-04T01:47:33.716Z,95059.19
2019-04-04T01:49:59.581Z,95059.19
2019-04-04T01:52:27.769Z,95056.97
2019-04-04T01:54:53.230Z,95047.42
2019-04-04T01:57:19.061Z,95047.42
2019-04-04T01:59:44.903Z,95049.47
2019-04-04T02:02:10.847Z,95045.23
2019-04-04T02:04:36.735Z,95027.84
2019-04-04T02:07:02.891Z,95021.11
2019-04-04T02:09:28.742Z,95015.23
2019-04-04T02:11:54.625Z,95015.23
2019-04-04T02:14:20.471Z,95012.51
2019-04-04T02:16:50.814Z,95008.95
2019-04-04T02:19:14.113Z,95011.63
2019-04-04T02:21:39.989Z,95004.88
2019-04-04T02:24:05.835Z,95004.24
2019-04-04T02:26:31.699Z,95008.66
2019-04-04T02:28:57.695Z,95004.84
2019-04-04T02:31:24.130Z,95007.31
2019-04-04T02:33:50.013Z,95003.23
2019-04-04T02:36:16.758Z,95002.34
2019-04-04T02:38:47.145Z,95009.33
2019-04-04T02:41:15.536Z,95002.52
2019-04-04T02:43:40.767Z,94999.13
2019-04-04T02:46:10.994Z,94995.14
2019-04-04T02:48:34.377Z,94996.03
2019-04-04T02:51:00.251Z,94994.30
2019-04-04T02:53:26.137Z,94987.05
2019-04-04T02:55:52.046Z,94984.39
2019-04-04T02:58:18.009Z,94983.36
2019-04-04T03:00:43.852Z,94975.77
2019-04-04T03:03:09.720Z,94962.61
2019-04-04T03:05:35.576Z,94959.59
2019-04-04T03:08:04.283Z,94946.52
2019-04-04T03:10:29.255Z,94946.64
2019-04-04T03:12:58.488Z,94942.14
2019-04-04T03:15:23.616Z,94954.67
2019-04-04T03:17:49.461Z,94947.53
2019-04-04T03:20:17.335Z,94945.75
2019-04-04T03:22:43.047Z,94939.52
2019-04-04T03:25:09.000Z,94934.86
2019-04-04T03:27:34.856Z,94932.63
2019-04-04T03:30:00.867Z,94934.91
2019-04-04T03:32:26.756Z,94929.56
2019-04-04T03:34:52.749Z,94927.56
2019-04-04T03:37:18.555Z,94927.37
2019-04-04T03:39:44.427Z,94922.92
2019-04-04T03:42:10.271Z,94910.67
2019-04-04T03:44:36.111Z,94906.19
2019-04-04T03:47:01.970Z,94897.13
2019-04-04T03:49:27.813Z,94905.22
2019-04-04T03:51:53.725Z,94900.88
2019-04-04T03:54:23.359Z,94899.94
2019-04-04T03:56:49.334Z,94896.97
2019-04-04T03:59:15.195Z,94896.97
2019-04-04T04:01:45.499Z,94894.45
2019-04-04T04:04:08.949Z,94895.77
2019-04-04T04:06:34.789Z,94895.77
2019-04-04T04:09:00.649Z,94887.13
2019-04-04T04:11:26.499Z,94881.73
2019-04-04T04:13:52.392Z,94862.16
2019-04-04T04:16:18.236Z,94872.83
2019-04-04T04:18:44.096Z,94868.39
2019-04-04T04:21:11.117Z,94869.52
2019-04-04T04:23:37.266Z,94869.02
2019-04-04T04:26:03.144Z,94869.02
2019-04-04T04:28:28.979Z,94871.52
2019-04-04T04:30:54.972Z,94862.53
2019-04-04T04:33:20.842Z,94865.20
2019-04-04T04:35:46.766Z,94867.93
2019-04-04T04:38:12.588Z,94861.30
2019-04-04T04:40:38.444Z,94861.30
2019-04-04T04:43:04.435Z,94861.48
2019-04-04T04:45:30.307Z,94856.93
2019-04-04T04:47:57.329Z,94855.33
2019-04-04T04:50:23.340Z,94856.30
2019-04-04T04:52:49.328Z,94846.55
2019-04-04T04:55:15.323Z,94846.77
2019-04-04T04:57:41.205Z,94846.61
2019-04-04T05:00:07.338Z,94848.00
2019-04-04T05:02:33.228Z,94847.81
2019-04-04T05:04:59.399Z,94847.81
2019-04-04T05:07:25.852Z,94836.94
2019-04-04T05:09:51.707Z,94837.28
2019-04-04T05:12:17.583Z,94836.86
2019-04-04T05:14:43.473Z,94837.86
2019-04-04T05:17:10.133Z,94830.66
2019-04-04T05:19:36.521Z,94836.25
2019-04-04T05:22:02.456Z,94827.82
2019-04-04T05:24:28.397Z,94822.62
2019-04-04T05:26:54.426Z,94809.48
2019-04-04T05:29:20.285Z,94809.70
2019-04-04T05:31:46.172Z,94809.23
2019-04-04T05:34:12.307Z,94809.17
2019-04-04T05:36:38.186Z,94810.59
2019-04-04T05:39:06.055Z,94810.59
2019-04-04T05:41:31.923Z,94807.14
2019-04-04T05:43:57.800Z,94796.95
2019-04-04T05:46:23.629Z,94808.78
2019-04-04T05:48:49.518Z,94805.55
2019-04-04T05:51:15.975Z,94810.14
2019-04-04T05:53:41.943Z,94800.67
2019-04-04T05:56:07.801Z,94797.00
2019-04-04T05:58:33.665Z,94791.46
2019-04-04T06:01:01.659Z,94783.22
2019-04-04T06:03:27.507Z,94789.59
2019-04-04T06:05:53.382Z,94789.59
2019-04-04T06:08:19.224Z,94795.68
2019-04-04T06:10:45.094Z,94792.13
2019-04-04T06:13:10.929Z,94791.80
2019-04-04T06:15:36.840Z,94793.59
2019-04-04T06:18:02.674Z,94792.83
2019-04-04T06:20:28.847Z,94796.93
2019-04-04T06:22:54.720Z,94788.41
2019-04-04T06:25:20.597Z,94788.41
2019-04-04T06:27:46.437Z,94781.88
2019-04-04T06:30:12.509Z,94774.89
2019-04-04T06:32:39.026Z,94768.66
2019-04-04T06:35:05.065Z,94748.15
2019-04-04T06:37:31.021Z,94748.15
2019-04-04T06:39:58.971Z,94748.02
2019-04-04T06:42:24.676Z,94735.90
2019-04-04T06:44:50.529Z,94735.90
2019-04-04T06:47:16.645Z,94739.63
2019-04-04T06:49:45.557Z,94731.45
2019-04-04T06:52:10.369Z,94728.99
2019-04-04T06:54:36.226Z,94724.11
2019-04-04T06:57:04.112Z,94713.19
2019-04-04T06:59:29.845Z,94710.87
2019-04-04T07:01:55.711Z,94710.87
2019-04-04T07:04:21.856Z,94704.66
2019-04-04T07:06:47.741Z,94704.66
2019-04-04T07:09:13.703Z,94705.16
2019-04-04T07:11:39.555Z,94706.36
2019-04-04T07:14:05.407Z,94709.27
2019-04-04T07:16:31.267Z,94706.89
2019-04-04T07:18:57.101Z,94699.78
2019-04-04T07:21:23.000Z,94693.54
2019-04-04T07:23:48.846Z,94681.23
2019-04-04T07:26:14.995Z,94679.73
2019-04-04T07:28:40.850Z,94675.81
2019-04-04T07:31:06.669Z,94675.81
2019-04-04T07:33:32.518Z,94672.80
2019-04-04T07:35:58.354Z,94664.47
2019-04-04T07:38:24.238Z,94668.08
2019-04-04T07:40:50.072Z,94661.79
2019-04-04T07:43:17.114Z,94659.48
2019-04-04T07:45:43.696Z,94663.86
2019-04-04T07:48:12.161Z,94650.03
2019-04-04T07:50:37.290Z,94653.75
2019-04-04T07:53:04.858Z,94649.02
2019-04-04T07:55:31.025Z,94653.00
2019-04-04T07:57:56.866Z,94648.25
2019-04-04T08:00:22.743Z,94650.64
2019-04-04T08:02:48.575Z,94655.16
2019-04-04T08:05:14.562Z,94658.06
2019-04-04T08:07:40.393Z,94652.27
2019-04-04T08:10:06.471Z,94658.89
2019-04-04T08:12:32.440Z,94655.47
2019-04-04T08:14:58.286Z,94663.08
2019-04-04T08:17:24.143Z,94667.77
2019-04-04T08:19:59.097Z,94664.21
2019-04-04T08:22:17.807Z,94664.55
2019-04-04T08:24:43.699Z,94664.01
2019-04-04T08:27:09.571Z,94664.80
2019-04-04T08:29:35.408Z,94658.43
2019-04-04T08:32:01.270Z,94656.41
2019-04-04T08:34:28.214Z,94662.48
2019-04-04T08:36:54.091Z,94664.27
2019-04-04T08:39:19.961Z,94659.46
2019-04-04T08:41:45.800Z,94664.83
2019-04-04T08:44:11.637Z,94660.66
2019-04-04T08:46:37.584Z,94664.66
2019-04-04T08:49:03.436Z,94658.22
2019-04-04T08:51:29.411Z,94652.89
2019-04-04T08:53:55.250Z,94643.67
2019-04-04T08:56:21.132Z,94650.83
2019-04-04T08:58:46.990Z,94649.00
2019-04-04T09:01:12.881Z,94656.19
2019-04-04T09:03:38.721Z,94644.17
2019-04-04T09:06:04.760Z,94652.05
2019-04-04T09:08:30.610Z,94651.30
2019-04-04T09:10:56.558Z,94654.41
2019-04-04T09:13:22.415Z,94655.09
2019-04-04T09:15:48.353Z,94651.50
2019-04-04T09:18:14.233Z,94647.94
2019-04-04T09:20:40.186Z,94649.67
2019-04-04T09:23:06.052Z,94632.73
2019-04-04T09:25:31.984Z,94633.24
2019-04-04T09:27:57.828Z,94622.44
2019-04-04T09:30:24.096Z,94629.28
2019-04-04T09:32:50.065Z,94626.67
2019-04-04T09:35:16.237Z,94632.04
2019-04-04T09:37:42.357Z,94634.71
2019-04-04T09:40:09.319Z,94631.48
2019-04-04T09:42:35.172Z,94632.34
2019-04-04T09:45:01.054Z,94628.05
2019-04-04T09:47:27.003Z,94631.66
2019-04-04T09:49:52.865Z,94638.45
2019-04-04T09:52:18.741Z,94637.06
2019-04-04T09:54:44.634Z,94636.83
2019-04-04T09:57:10.518Z,94635.05
2019-04-04T09:59:36.364Z,94631.38
2019-04-04T10:02:02.311Z,94633.23
2019-04-04T10:04:28.147Z,94630.80
2019-04-04T10:06:54.123Z,94640.32
2019-04-04T10:09:20.097Z,94637.28
2019-04-04T10:11:45.960Z,94636.06
2019-04-04T10:14:11.827Z,94645.11
2019-04-04T10:16:37.679Z,94649.90
2019-04-04T10:19:03.532Z,94641.98
2019-04-04T10:21:29.383Z,94643.18
2019-04-04T10:23:55.239Z,94636.50
2019-04-04T10:26:21.081Z,94636.75
2019-04-04T10:28:46.975Z,94634.84
2019-04-04T10:31:12.799Z,94633.32
2019-04-04T10:33:38.665Z,94633.92
2019-04-04T10:36:04.529Z,94628.58
2019-04-04T10:38:30.400Z,94634.59
2019-04-04T10:40:56.238Z,94639.75
2019-04-04T10:43:22.101Z,94648.78
2019-04-04T10:45:48.252Z,94643.72
2019-04-04T10:48:14.107Z,94646.63
2019-04-04T10:50:39.943Z,94646.31
2019-04-04T10:53:05.820Z,94643.14
2019-04-04T10:55:31.664Z,94642.98
2019-04-04T10:57:57.538Z,94644.03
2019-04-04T11:00:23.474Z,94636.59
2019-04-04T11:02:49.363Z,94641.09
2019-04-04T11:05:15.488Z,94631.82
2019-04-04T11:07:41.607Z,94637.36
2019-04-04T11:10:07.670Z,94632.63
2019-04-04T11:12:34.364Z,94638.20
2019-04-04T11:15:00.401Z,94628.13
2019-04-04T11:17:26.264Z,94638.58
2019-04-04T11:19:52.200Z,94636.43
2019-04-04T11:22:18.054Z,94638.77
2019-04-04T11:24:43.904Z,94649.84
2019-04-04T11:27:09.750Z,94639.09
2019-04-04T11:29:35.577Z,94632.17
2019-04-04T11:32:01.555Z,94631.50
2019-04-04T11:34:27.407Z,94625.22
2019-04-04T11:36:53.266Z,94626.34
2019-04-04T11:39:19.127Z,94619.98
2019-04-04T11:41:44.956Z,94621.52
2019-04-04T11:44:10.838Z,94614.45
2019-04-04T11:46:36.690Z,94606.42
2019-04-04T11:49:02.561Z,94610.98
2019-04-04T11:51:28.567Z,94610.66
2019-04-04T11:53:54.402Z,94605.05
2019-04-04T11:56:20.254Z,94619.17
2019-04-04T11:58:46.119Z,94620.19
2019-04-04T12:01:13.884Z,94617.75
2019-04-04T12:03:39.725Z,94611.48
2019-04-04T12:06:05.596Z,94611.16
2019-04-04T12:08:31.569Z,94603.98
2019-04-04T12:10:57.455Z,94612.07
2019-04-04T12:13:23.309Z,94621.31
2019-04-04T12:15:49.221Z,94624.70
2019-04-04T12:18:15.182Z,94614.64
2019-04-04T12:20:43.380Z,94618.50
2019-04-04T12:23:08.772Z,94619.94
2019-04-04T12:25:34.739Z,94612.05
2019-04-04T12:28:00.583Z,94607.94
2019-04-04T12:30:26.472Z,94600.66
2019-04-04T12:32:52.308Z,94595.25
2019-04-04T12:35:18.250Z,94593.50
2019-04-04T12:37:44.226Z,94596.86
2019-04-04T12:40:19.917Z,94585.94
2019-04-04T12:45:06.930Z,94577.61
2019-04-04T12:47:32.882Z,94586.12
2019-04-04T12:49:58.705Z,94583.55
2019-04-04T12:52:24.608Z,94581.77
2019-04-04T12:54:50.448Z,94583.86
2019-04-04T12:57:16.299Z,94582.98
2019-04-04T12:59:42.171Z,94576.95
2019-04-04T13:02:08.031Z,94573.23
2019-04-04T13:04:33.892Z,94578.95
2019-04-04T13:06:59.749Z,94574.56
2019-04-04T13:09:25.671Z,94572.28
2019-04-04T13:11:51.515Z,94573.11
2019-04-04T13:14:17.361Z,94565.22
2019-04-04T13:16:43.253Z,94572.58
2019-04-04T13:19:09.088Z,94567.30
2019-04-04T13:21:34.947Z,94570.25
2019-04-04T13:24:00.918Z,94576.83
2019-04-04T13:26:26.754Z,94581.35
2019-04-04T13:28:52.621Z,94586.91
2019-04-04T13:31:18.480Z,94583.70
2019-04-04T13:33:44.403Z,94580.00
2019-04-04T13:36:10.246Z,94571.77
2019-04-04T13:38:36.148Z,94580.97
2019-04-04T13:41:02.081Z,94577.27
2019-04-04T13:43:27.953Z,94580.30
2019-04-04T13:45:53.844Z,94585.48
2019-04-04T13:48:19.814Z,94587.33
2019-04-04T13:50:45.684Z,94588.48
2019-04-04T13:53:11.568Z,94592.97
2019-04-04T13:55:39.312Z,94600.01
2019-04-04T13:58:05.421Z,94600.49
2019-04-04T14:00:31.507Z,94595.72
2019-04-04T14:02:57.464Z,94600.05
2019-04-04T14:05:23.377Z,94601.20
2019-04-04T14:07:49.222Z,94597.98
2019-04-04T14:10:17.558Z,94597.17
2019-04-04T14:12:43.029Z,94589.34
2019-04-04T14:15:09.086Z,94592.66
2019-04-04T14:17:34.978Z,94587.05
2019-04-04T14:20:00.834Z,94595.13
2019-04-04T14:22:26.803Z,94595.83
2019-04-04T14:24:52.655Z,94585.62
2019-04-04T14:27:18.860Z,94593.97
2019-04-04T14:29:44.986Z,94601.63
2019-04-04T14:32:10.846Z,94616.86
2019-04-04T14:34:36.772Z,94593.88
2019-04-04T14:37:02.840Z,94625.59
2019-04-04T14:39:28.702Z,94631.73
2019-04-04T14:41:54.555Z,94631.66
2019-04-04T14:44:20.436Z,94636.86
2019-04-04T14:46:46.282Z,94643.73
2019-04-04T14:49:12.377Z,94648.09
2019-04-04T14:51:40.106Z,94641.73
2019-04-04T14:54:08.224Z,94652.56
2019-04-04T14:56:34.391Z,94652.19
2019-04-04T14:59:00.261Z,94645.60
2019-04-04T15:01:26.111Z,94558.02
2019-04-04T15:03:52.046Z,94647.69
2019-04-04T15:06:17.935Z,94668.95
2019-04-04T15:08:43.925Z,94667.32
2019-04-04T15:11:09.784Z,94672.57
2019-04-04T15:13:35.759Z,94677.90
2019-04-04T15:16:16.022Z,94686.73
2019-04-04T15:18:42.368Z,94709.39
2019-04-04T15:21:08.569Z,94715.05
2019-04-04T15:23:34.432Z,94724.48
2019-04-04T15:26:00.314Z,94719.17
2019-04-04T15:28:26.282Z,94714.20
2019-04-04T15:30:52.214Z,94739.91
2019-04-04T15:33:18.090Z,94742.64
2019-04-04T15:35:43.994Z,94742.38
2019-04-04T15:38:09.863Z,94746.55
2019-04-04T15:40:35.727Z,94766.47
2019-04-04T15:43:01.586Z,94765.70
2019-04-04T15:45:27.440Z,94780.95
2019-04-04T15:47:53.292Z,94771.96
2019-04-04T15:50:19.167Z,94775.53
2019-04-04T15:52:45.077Z,94774.83
2019-04-04T15:55:11.201Z,94784.31
2019-04-04T15:57:36.995Z,94794.83
2019-04-04T16:00:05.359Z,94801.66
2019-04-04T16:02:31.362Z,94810.01
2019-04-04T16:04:57.321Z,94764.92
2019-04-04T16:07:23.184Z,94813.93
2019-04-04T16:09:49.058Z,94807.09
2019-04-04T16:12:14.957Z,94811.09
2019-04-04T16:14:40.809Z,94830.33
2019-04-04T16:17:06.683Z,94817.16
2019-04-04T16:19:32.546Z,94821.48
2019-04-04T16:21:58.430Z,94834.72
2019-04-04T16:24:24.299Z,94829.94
2019-04-04T16:26:50.299Z,94817.84
2019-04-04T16:29:16.151Z,94817.84
2019-04-04T16:31:42.012Z,94831.13
2019-04-04T16:34:07.881Z,94830.52
2019-04-04T16:36:33.729Z,94826.48
2019-04-04T16:38:59.609Z,94834.02
2019-04-04T16:41:25.502Z,94839.96
2019-04-04T16:43:51.381Z,94839.16
2019-04-04T16:46:17.325Z,94842.66
2019-04-04T16:48:43.183Z,94849.56
2019-04-04T16:51:09.035Z,94860.80
2019-04-04T16:53:34.892Z,94866.90
2019-04-04T16:56:00.742Z,94878.39
2019-04-04T16:58:26.700Z,94873.64
2019-04-04T17:00:52.591Z,94875.42
2019-04-04T17:03:18.434Z,94880.22
2019-04-04T17:05:44.337Z,94884.61
2019-04-04T17:08:10.273Z,94891.73
2019-04-04T17:10:36.248Z,94879.95
2019-04-04T17:13:02.089Z,94882.18
2019-04-04T17:15:27.958Z,94883.93
2019-04-04T17:17:53.788Z,94885.31
2019-04-04T17:20:20.864Z,94884.78
2019-04-04T17:22:46.814Z,94880.44
2019-04-04T17:25:12.769Z,94872.69
2019-04-04T17:27:38.609Z,94904.30
2019-04-04T17:30:05.360Z,94895.44
2019-04-04T17:32:31.666Z,94891.80
2019-04-04T17:34:57.532Z,94893.92
2019-04-04T17:37:23.940Z,94899.00
2019-04-04T17:39:50.082Z,94910.14
2019-04-04T17:42:28.251Z,94904.47
2019-04-04T17:44:44.326Z,94913.17
2019-04-04T17:47:10.233Z,94912.42
2019-04-04T17:49:36.527Z,94907.14
2019-04-04T17:52:02.904Z,94924.30
2019-04-04T17:54:29.049Z,94934.67
2019-04-04T17:56:54.937Z,94935.23
2019-04-04T17:59:20.795Z,94935.23
2019-04-04T18:01:46.637Z,94942.39
2019-04-04T18:04:12.489Z,94961.08
2019-04-04T18:06:40.685Z,94969.75
2019-04-04T18:09:06.925Z,94965.28
2019-04-04T18:11:32.850Z,94964.63
2019-04-04T18:13:58.744Z,94986.05
2019-04-04T18:16:24.638Z,94985.61
2019-04-04T18:18:50.502Z,94991.48
2019-04-04T18:21:16.384Z,94996.00
2019-04-04T18:23:42.253Z,94998.69
2019-04-04T18:26:08.112Z,95007.56
2019-04-04T18:28:35.257Z,95012.09
2019-04-04T18:31:01.167Z,95024.45
2019-04-04T18:33:27.427Z,95027.09
2019-04-04T18:35:53.414Z,95036.50
2019-04-04T18:38:19.450Z,95037.09
2019-04-04T18:40:45.307Z,95037.98
2019-04-04T18:43:11.304Z,95025.83
2019-04-04T18:45:37.300Z,95046.34
2019-04-04T18:48:03.262Z,95052.30
2019-04-04T18:50:29.096Z,95052.14
2019-04-04T18:52:54.954Z,95057.15
2019-04-04T18:55:20.823Z,95072.66
2019-04-04T18:57:46.652Z,95066.77
2019-04-04T19:00:12.906Z,95070.30
2019-04-04T19:02:39.351Z,95092.44
2019-04-04T19:05:05.603Z,95091.67
2019-04-04T19:07:39.329Z,95091.67
2019-04-04T19:09:59.245Z,95094.88
2019-04-04T19:12:25.089Z,95094.20
2019-04-04T19:14:50.978Z,95095.66
2019-04-04T19:17:16.943Z,95101.02
2019-04-04T19:19:42.869Z,95110.94
2019-04-04T19:22:08.790Z,95104.42
2019-04-04T19:24:34.656Z,95100.47
2019-04-04T19:27:00.498Z,95107.69
2019-04-04T19:29:26.336Z,95116.36
2019-04-04T19:31:52.298Z,95123.84
2019-04-04T19:34:18.481Z,95127.63
2019-04-04T19:36:44.359Z,95133.05
2019-04-04T19:39:12.191Z,95133.05
2019-04-04T19:41:38.056Z,95119.92
2019-04-04T19:44:03.931Z,95125.33
2019-04-04T19:46:36.932Z,95133.63
2019-04-04T19:48:57.686Z,95147.38
2019-04-04T19:51:23.533Z,95147.38
2019-04-04T19:53:49.420Z,95147.28
2019-04-04T19:56:15.369Z,95147.22
2019-04-04T19:58:41.314Z,95149.73
2019-04-04T20:01:08.082Z,95154.91
2019-04-04T20:03:33.952Z,95158.80
2019-04-04T20:05:59.897Z,95150.71
2019-04-04T20:08:26.255Z,95159.14
2019-04-04T20:10:52.233Z,95159.17
2019-04-04T20:13:29.924Z,95159.17
2019-04-04T20:15:45.868Z,95152.26
2019-04-04T20:18:11.796Z,95152.26
2019-04-04T20:20:37.648Z,95158.08
2019-04-04T20:23:03.505Z,95166.68
2019-04-04T20:25:29.367Z,95166.73
2019-04-04T20:27:55.393Z,95179.62
2019-04-04T20:30:36.029Z,95200.89
2019-04-04T20:33:01.904Z,95200.89
2019-04-04T20:35:27.766Z,95209.45
2019-04-04T20:37:53.611Z,95228.13
2019-04-04T20:40:19.453Z,95240.52
2019-04-04T20:42:45.291Z,95247.98
2019-04-04T20:45:11.329Z,95250.16
2019-04-04T20:47:37.175Z,95260.55
2019-04-04T20:50:06.405Z,95262.25
2019-04-04T20:52:32.232Z,95263.23
2019-04-04T20:54:58.110Z,95266.16
2019-04-04T20:57:23.961Z,95273.50
2019-04-04T20:59:49.845Z,95271.98
2019-04-04T21:02:15.694Z,95259.53
2019-04-04T21:04:41.540Z,95258.43
2019-04-04T21:07:09.300Z,95248.58
2019-04-04T21:09:35.137Z,95246.80
2019-04-04T21:12:00.993Z,95235.22
2019-04-04T21:14:26.830Z,95224.40
2019-04-04T21:16:52.694Z,95217.17
2019-04-04T21:19:18.544Z,95210.05
2019-04-04T21:21:44.399Z,95213.56
2019-04-04T21:24:10.261Z,95207.01
2019-04-04T21:26:36.129Z,95216.77
2019-04-04T21:29:01.981Z,95223.59
2019-04-04T21:31:27.827Z,95220.33
2019-04-04T21:33:53.664Z,95220.96
2019-04-04T21:36:19.519Z,95220.37
2019-04-04T21:38:45.399Z,95226.56
2019-04-04T21:41:11.250Z,95233.81
2019-04-04T21:43:37.103Z,95257.25
2019-04-04T21:46:03.039Z,95288.45
2019-04-04T21:48:28.981Z,95292.31
2019-04-04T21:50:54.836Z,95280.97
2019-04-04T21:53:21.548Z,95263.44
2019-04-04T21:55:47.369Z,95269.89
2019-04-04T21:58:13.204Z,95286.88
2019-04-04T22:00:43.518Z,95287.55
2019-04-04T22:03:09.590Z,95275.41
2019-04-04T22:05:35.430Z,95283.57
2019-04-04T22:08:01.280Z,95283.57
2019-04-04T22:10:27.141Z,95298.39
2019-04-04T22:12:52.959Z,95301.88
2019-04-04T22:15:18.809Z,95303.31
2019-04-04T22:17:44.632Z,95297.27
2019-04-04T22:20:10.611Z,95300.66
2019-04-04T22:22:37.687Z,95300.97
2019-04-04T22:25:07.031Z,95316.11
2019-04-04T22:27:32.865Z,95310.43
2019-04-04T22:29:58.720Z,95323.58
2019-04-04T22:32:24.560Z,95320.86
2019-04-04T22:34:50.391Z,95320.84
2019-04-04T22:37:16.228Z,95325.42
2019-04-04T22:39:42.084Z,95335.94
2019-04-04T22:42:07.920Z,95346.02
2019-04-04T22:44:35.298Z,95348.88
2019-04-04T22:47:01.231Z,95348.11
2019-04-04T22:49:27.060Z,95340.97
2019-04-04T22:51:53.007Z,95344.36
2019-04-04T22:54:18.860Z,95335.84
2019-04-04T22:56:44.705Z,95338.81
2019-04-04T22:59:10.535Z,95345.48
2019-04-04T23:01:36.456Z,95355.77
2019-04-04T23:04:02.326Z,95358.83
2019-04-04T23:06:28.184Z,95356.88
2019-04-04T23:08:54.001Z,95366.85
2019-04-04T23:11:19.838Z,95370.88
2019-04-04T23:13:45.674Z,95374.39
2019-04-04T23:16:11.542Z,95372.61
2019-04-04T23:18:37.380Z,95375.31
2019-04-04T23:21:03.342Z,95372.03
2019-04-04T23:23:29.194Z,95370.39
2019-04-04T23:25:55.044Z,95370.72
2019-04-04T23:28:20.970Z,95370.83
2019-04-04T23:30:46.859Z,95381.58
2019-04-04T23:33:12.714Z,95370.79
2019-04-04T23:35:38.735Z,95364.45
2019-04-04T23:38:04.579Z,95370.12
2019-04-04T23:40:30.496Z,95363.04
2019-04-04T23:42:56.341Z,95372.50
2019-04-04T23:45:22.174Z,95381.91
2019-04-04T23:47:48.031Z,95375.88
2019-04-04T23:50:14.177Z,95370.38
2019-04-04T23:52:40.027Z,95372.55
2019-04-04T23:55:06.095Z,95365.56
2019-04-04T23:57:31.957Z,95377.70
2019-04-04T23:59:57.808Z,95364.30
